createdAt,value
2022-08-07T00:00:31.253Z,1.90
2022-08-07T00:02:57.841Z,2.90
2022-08-07T00:05:24.937Z,0.38
2022-08-07T00:07:59.885Z,1.00
2022-08-07T00:10:30.580Z,3.65
2022-08-07T00:13:01.048Z,1.65
2022-08-07T00:15:38.411Z,0.65
2022-08-07T00:18:19.629Z,1.95
2022-08-07T00:20:49.345Z,1.63
2022-08-07T00:23:17.056Z,2.35
2022-08-07T00:25:45.979Z,1.45
2022-08-07T00:28:19.491Z,4.75
2022-08-07T00:30:48.753Z,2.22
2022-08-07T00:33:15.467Z,1.98
2022-08-07T00:35:44.453Z,2.03
2022-08-07T00:38:14.363Z,1.95
2022-08-07T00:40:41.980Z,0.95
2022-08-07T00:44:01.747Z,2.50
2022-08-07T00:45:58.325Z,1.05
2022-08-07T00:48:32.217Z,1.00
2022-08-07T00:50:59.331Z,1.60
2022-08-07T00:53:27.042Z,2.55
2022-08-07T00:56:13.726Z,1.77
2022-08-07T00:58:46.960Z,2.00
2022-08-07T01:03:55.610Z,2.40
2022-08-07T01:06:30.300Z,1.05
2022-08-07T01:08:58.345Z,1.67
2022-08-07T01:12:27.474Z,1.92
2022-08-07T01:14:12.028Z,1.17
2022-08-07T01:16:43.209Z,2.30
2022-08-07T01:19:18.494Z,2.90
2022-08-07T01:21:53.314Z,1.52
2022-08-07T01:24:22.329Z,2.95
2022-08-07T01:26:52.193Z,2.92
2022-08-07T01:29:22.439Z,3.53
2022-08-07T01:31:51.845Z,0.70
2022-08-07T01:34:19.027Z,2.28
2022-08-07T01:36:52.729Z,1.75
2022-08-07T01:39:39.675Z,0.77
2022-08-07T01:42:38.393Z,1.88
2022-08-07T01:44:59.042Z,2.50
2022-08-07T01:48:20.529Z,1.27
2022-08-07T01:50:14.430Z,3.65
2022-08-07T01:52:49.751Z,0.60
2022-08-07T01:55:26.394Z,1.52
2022-08-07T01:58:05.456Z,0.80
2022-08-07T02:00:48.979Z,2.65
2022-08-07T02:03:24.960Z,2.55
2022-08-07T02:05:59.768Z,1.08
2022-08-07T02:08:32.250Z,2.17
2022-08-07T02:11:00.289Z,1.08
2022-08-07T02:13:57.894Z,2.45
2022-08-07T02:16:28.677Z,2.17
2022-08-07T02:19:02.160Z,1.17
2022-08-07T02:21:56.476Z,1.45
2022-08-07T02:24:19.929Z,0.95
2022-08-07T02:26:47.154Z,2.97
2022-08-07T02:29:14.011Z,3.03
2022-08-07T02:31:42.124Z,1.45
2022-08-07T02:34:11.624Z,3.65
2022-08-07T02:36:50.446Z,2.90
2022-08-07T02:39:43.362Z,0.75
2022-08-07T02:42:10.107Z,1.08
2022-08-07T02:44:47.763Z,1.90
2022-08-07T02:47:40.155Z,0.80
2022-08-07T02:50:14.633Z,2.53
2022-08-07T02:52:44.082Z,0.85
2022-08-07T02:55:28.500Z,2.75
2022-08-07T02:58:07.148Z,2.15
2022-08-07T03:00:39.305Z,1.55
2022-08-07T03:03:13.457Z,1.58
2022-08-07T03:05:45.780Z,3.08
2022-08-07T03:08:15.629Z,3.67
2022-08-07T03:10:47.213Z,1.00
2022-08-07T03:13:19.541Z,3.95
2022-08-07T03:15:56.697Z,1.70
2022-08-07T03:18:34.278Z,1.20
2022-08-07T03:21:02.674Z,0.93
2022-08-07T03:23:34.127Z,1.15
2022-08-07T03:26:20.928Z,0.90
2022-08-07T03:28:51.548Z,1.23
2022-08-07T03:31:24.598Z,2.95
2022-08-07T03:33:57.240Z,1.38
2022-08-07T03:36:25.947Z,2.40
2022-08-07T03:38:55.331Z,1.85
2022-08-07T03:41:41.979Z,1.42
2022-08-07T03:44:12.318Z,2.03
2022-08-07T03:47:13.656Z,1.90
2022-08-07T03:49:30.152Z,3.10
2022-08-07T03:52:01.082Z,2.05
2022-08-07T03:54:35.980Z,2.08
2022-08-07T03:58:08.803Z,0.65
2022-08-07T04:00:04.158Z,1.77
2022-08-07T04:02:47.229Z,0.98
2022-08-07T04:05:24.005Z,1.92
2022-08-07T04:07:57.551Z,1.83
2022-08-07T04:10:26.050Z,0.70
2022-08-07T04:12:57.166Z,3.30
2022-08-07T04:15:25.218Z,4.63
2022-08-07T04:18:57.614Z,1.27
2022-08-07T04:20:54.309Z,2.88
2022-08-07T04:23:22.637Z,2.55
2022-08-07T04:25:50.971Z,2.10
2022-08-07T04:28:21.807Z,2.58
2022-08-07T04:30:56.720Z,1.20
2022-08-07T04:33:29.709Z,2.25
2022-08-07T04:35:57.903Z,1.95
2022-08-07T04:38:27.382Z,1.23
2022-08-07T04:40:57.016Z,1.63
2022-08-07T04:44:10.325Z,1.67
2022-08-07T04:46:34.351Z,1.88
2022-08-07T04:49:14.974Z,2.60
2022-08-07T04:51:47.513Z,1.65
2022-08-07T04:54:16.457Z,2.67
2022-08-07T04:58:15.000Z,1.05
2022-08-07T05:00:11.889Z,2.63
2022-08-07T05:02:51.630Z,1.80
2022-08-07T05:05:53.555Z,3.28
2022-08-07T05:08:13.423Z,1.83
2022-08-07T05:10:50.969Z,1.05
2022-08-07T05:14:56.174Z,1.55
2022-08-07T05:16:23.974Z,4.93
2022-08-07T05:18:56.189Z,1.27
2022-08-07T05:22:00.666Z,0.95
2022-08-07T05:24:13.026Z,1.15
2022-08-07T05:26:40.955Z,1.25
2022-08-07T05:29:14.340Z,1.52
2022-08-07T05:31:51.159Z,1.38
2022-08-07T05:34:26.227Z,3.25
2022-08-07T05:36:55.817Z,2.00
2022-08-07T05:40:05.902Z,3.10
2022-08-07T05:42:34.654Z,1.92
2022-08-07T05:45:25.711Z,0.95
2022-08-07T05:48:01.100Z,2.92
2022-08-07T05:50:31.493Z,2.17
2022-08-07T05:52:58.252Z,3.03
2022-08-07T05:55:25.607Z,4.05
2022-08-07T05:58:14.312Z,2.72
2022-08-07T06:00:42.320Z,2.90
2022-08-07T06:03:14.225Z,0.60
2022-08-07T06:05:48.940Z,0.77
2022-08-07T06:08:31.313Z,1.95
2022-08-07T06:10:59.521Z,1.27
2022-08-07T06:14:10.750Z,0.85
2022-08-07T06:16:18.051Z,1.75
2022-08-07T06:18:55.534Z,1.52
2022-08-07T06:22:16.437Z,1.10
2022-08-07T06:24:52.475Z,1.02
2022-08-07T06:26:58.496Z,5.45
2022-08-07T06:29:30.241Z,1.17
2022-08-07T06:31:56.839Z,2.22
2022-08-07T06:34:24.464Z,2.33
2022-08-07T06:36:56.619Z,3.33
2022-08-07T06:40:16.244Z,3.03
2022-08-07T06:42:37.024Z,0.90
2022-08-07T06:45:22.536Z,0.80
2022-08-07T06:47:58.714Z,2.33
2022-08-07T06:50:39.479Z,1.35
2022-08-07T06:53:18.608Z,3.83
2022-08-07T06:56:02.111Z,1.10
2022-08-07T06:58:35.386Z,2.75
2022-08-07T07:01:08.842Z,3.00
2022-08-07T07:03:48.104Z,1.88
2022-08-07T07:06:26.096Z,1.95
2022-08-07T07:08:54.392Z,4.82
2022-08-07T07:12:07.792Z,3.20
2022-08-07T07:14:08.522Z,2.00
2022-08-07T07:16:45.164Z,0.82
2022-08-07T07:19:55.406Z,1.80
2022-08-07T07:22:33.920Z,0.80
2022-08-07T07:25:02.363Z,3.78
2022-08-07T07:27:35.792Z,2.45
2022-08-07T07:30:32.560Z,2.67
2022-08-07T07:33:04.940Z,4.65
2022-08-07T07:35:33.861Z,3.90
2022-08-07T07:38:19.307Z,3.33
2022-08-07T07:40:46.845Z,1.52
2022-08-07T07:43:18.727Z,4.28
2022-08-07T07:46:53.723Z,4.10
2022-08-07T07:48:41.987Z,1.58
2022-08-07T07:51:12.877Z,5.32
2022-08-07T07:53:51.837Z,1.10
2022-08-07T07:56:30.359Z,3.00
2022-08-07T07:58:59.065Z,2.92
2022-08-07T08:02:01.850Z,3.35
2022-08-07T08:04:14.649Z,3.65
2022-08-07T08:06:50.761Z,1.83
2022-08-07T08:09:20.588Z,1.75
2022-08-07T08:12:02.157Z,2.72
2022-08-07T08:14:36.121Z,1.13
2022-08-07T08:17:56.118Z,1.95
2022-08-07T08:20:17.975Z,1.50
2022-08-07T08:23:00.207Z,6.68
2022-08-07T08:25:49.008Z,1.48
2022-08-07T08:28:23.923Z,2.53
2022-08-07T08:31:05.292Z,3.47
2022-08-07T08:33:34.250Z,1.50
2022-08-07T08:36:01.705Z,2.33
2022-08-07T08:38:38.458Z,3.80
2022-08-07T08:41:13.725Z,0.98
2022-08-07T08:43:59.345Z,4.38
2022-08-07T08:46:38.829Z,2.80
2022-08-07T08:49:10.224Z,0.90
2022-08-07T08:51:49.409Z,1.63
2022-08-07T08:54:38.466Z,4.35
2022-08-07T08:57:11.490Z,0.73
2022-08-07T08:59:53.309Z,2.45
2022-08-07T09:02:38.312Z,2.85
2022-08-07T09:05:04.813Z,3.22
2022-08-07T09:07:46.336Z,2.60
2022-08-07T09:10:23.586Z,3.60
2022-08-07T09:12:53.308Z,2.42
2022-08-07T09:16:23.000Z,2.35
2022-08-07T09:18:28.061Z,4.00
2022-08-07T09:21:01.031Z,3.38
2022-08-07T09:24:34.199Z,3.42
2022-08-07T09:26:51.573Z,3.35
2022-08-07T09:30:05.933Z,3.20
2022-08-07T09:32:26.511Z,2.85
2022-08-07T09:36:04.244Z,1.48
2022-08-07T09:38:10.570Z,2.15
2022-08-07T09:40:56.316Z,1.75
2022-08-07T09:43:40.188Z,3.25
2022-08-07T09:47:52.062Z,2.45
2022-08-07T09:49:59.424Z,2.53
2022-08-07T09:52:34.240Z,3.97
2022-08-07T09:55:01.670Z,2.22
2022-08-07T09:57:47.828Z,1.98
2022-08-07T10:00:15.277Z,3.67
2022-08-07T10:03:08.311Z,1.10
2022-08-07T10:06:10.461Z,3.33
2022-08-07T10:08:44.610Z,2.33
2022-08-07T10:11:59.685Z,1.88
2022-08-07T10:14:03.740Z,5.25
2022-08-07T10:16:45.132Z,2.35
2022-08-07T10:19:22.786Z,3.28
2022-08-07T10:22:16.980Z,2.88
2022-08-07T10:24:50.659Z,2.85
2022-08-07T10:27:26.299Z,0.70
2022-08-07T10:30:15.057Z,3.60
2022-08-07T10:32:59.837Z,2.78
2022-08-07T10:35:55.205Z,4.15
2022-08-07T10:38:42.345Z,3.83
2022-08-07T10:41:51.400Z,1.13
2022-08-07T10:44:33.903Z,2.92
2022-08-07T10:47:18.808Z,1.35
2022-08-07T10:50:19.611Z,5.40
2022-08-07T10:52:53.052Z,2.78
2022-08-07T10:55:41.628Z,3.72
2022-08-07T10:58:33.253Z,1.98
2022-08-07T11:01:18.301Z,2.05
2022-08-07T11:03:58.144Z,4.10
2022-08-07T11:06:40.233Z,2.47
2022-08-07T11:10:10.185Z,1.08
2022-08-07T11:12:18.941Z,2.65
2022-08-07T11:15:09.574Z,4.68
2022-08-07T11:17:50.559Z,0.73
2022-08-07T11:20:22.465Z,3.22
2022-08-07T11:23:30.419Z,1.63
2022-08-07T11:26:13.440Z,2.15
2022-08-07T11:28:55.741Z,2.65
2022-08-07T11:31:22.319Z,2.50
2022-08-07T11:33:59.278Z,2.85
2022-08-07T11:36:30.779Z,2.60
2022-08-07T11:39:09.596Z,1.27
2022-08-07T11:42:02.282Z,2.13
2022-08-07T11:44:34.560Z,1.77
2022-08-07T11:47:08.259Z,1.67
2022-08-07T11:50:25.496Z,1.65
2022-08-07T11:52:47.199Z,2.90
2022-08-07T11:56:08.598Z,3.20
2022-08-07T11:58:16.913Z,2.35
2022-08-07T12:01:04.406Z,1.40
2022-08-07T12:03:45.674Z,3.55
2022-08-07T12:06:37.172Z,2.90
2022-08-07T12:09:07.465Z,1.85
2022-08-07T12:11:43.491Z,1.42
2022-08-07T12:14:29.008Z,2.00
2022-08-07T12:17:01.417Z,2.53
2022-08-07T12:20:03.145Z,1.98
2022-08-07T12:22:58.190Z,3.00
2022-08-07T12:26:03.183Z,3.88
2022-08-07T12:28:44.884Z,3.00
2022-08-07T12:31:23.638Z,0.88
2022-08-07T12:34:00.694Z,2.45
2022-08-07T12:36:32.979Z,1.50
2022-08-07T12:39:01.974Z,0.75
2022-08-07T12:41:49.231Z,1.98
2022-08-07T12:44:17.248Z,1.58
2022-08-07T12:46:46.283Z,2.25
2022-08-07T12:49:25.784Z,2.22
2022-08-07T12:52:14.349Z,2.10
2022-08-07T12:55:03.907Z,1.10
2022-08-07T12:57:39.004Z,1.45
2022-08-07T13:00:31.312Z,3.97
2022-08-07T13:03:06.956Z,1.55
2022-08-07T13:06:03.405Z,2.67
2022-08-07T13:08:48.885Z,1.38
2022-08-07T13:11:23.798Z,1.05
2022-08-07T13:14:09.383Z,3.00
2022-08-07T13:16:36.795Z,1.00
2022-08-07T13:19:35.187Z,2.70
2022-08-07T13:22:30.953Z,1.27
2022-08-07T13:25:06.875Z,2.23
2022-08-07T13:28:10.768Z,2.95
2022-08-07T13:30:41.002Z,3.33
2022-08-07T13:34:32.595Z,3.45
2022-08-07T13:36:17.377Z,6.38
2022-08-07T13:38:47.835Z,2.65
2022-08-07T13:41:35.076Z,3.83
2022-08-07T13:44:02.986Z,2.55
2022-08-07T13:46:49.418Z,3.42
2022-08-07T13:50:35.518Z,4.82
2022-08-07T13:52:31.500Z,6.95
2022-08-07T13:54:59.623Z,7.55
2022-08-07T13:57:32.160Z,4.63
2022-08-07T14:00:07.524Z,9.50
2022-08-07T14:02:50.848Z,7.07
2022-08-07T14:05:22.970Z,3.45
2022-08-07T14:08:00.566Z,2.83
2022-08-07T14:10:33.939Z,3.50
2022-08-07T14:13:10.156Z,2.65
2022-08-07T14:15:40.373Z,1.73
2022-08-07T14:18:29.689Z,3.28
2022-08-07T14:21:07.104Z,2.50
2022-08-07T14:24:01.446Z,1.95
2022-08-07T14:26:29.875Z,4.25
2022-08-07T14:29:08.596Z,3.88
2022-08-07T14:31:42.822Z,3.13
2022-08-07T14:34:22.744Z,5.10
2022-08-07T14:36:56.394Z,2.65
2022-08-07T14:40:14.562Z,4.45
2022-08-07T14:42:20.168Z,3.28
2022-08-07T14:44:53.721Z,3.13
2022-08-07T14:47:20.755Z,7.15
2022-08-07T14:49:57.703Z,5.63
2022-08-07T14:52:28.110Z,3.78
2022-08-07T14:57:58.765Z,2.25
2022-08-07T15:00:32.971Z,2.05
2022-08-07T15:03:16.583Z,8.18
2022-08-07T15:05:55.296Z,3.45
2022-08-07T15:08:33.983Z,2.42
2022-08-07T15:11:03.070Z,3.97
2022-08-07T15:13:35.926Z,2.63
2022-08-07T15:16:10.889Z,2.42
2022-08-07T15:18:44.049Z,1.83
2022-08-07T15:21:58.460Z,2.63
2022-08-07T15:27:11.239Z,4.75
2022-08-07T15:41:22.981Z,2.78
2022-08-07T15:43:55.676Z,4.85
2022-08-07T15:46:32.129Z,4.18
2022-08-07T15:49:12.530Z,4.97
2022-08-07T15:56:52.396Z,5.88
2022-08-07T15:59:20.300Z,7.45
2022-08-07T16:02:08.550Z,3.33
2022-08-07T16:04:37.880Z,3.50
2022-08-07T16:08:29.004Z,2.40
2022-08-07T16:09:56.188Z,3.35
2022-08-07T16:12:39.162Z,2.20
2022-08-07T16:15:08.557Z,3.03
2022-08-07T16:18:14.198Z,3.45
2022-08-07T16:22:02.425Z,4.07
2022-08-07T16:24:02.515Z,3.28
2022-08-07T16:26:59.458Z,6.07
2022-08-07T16:30:10.657Z,3.50
2022-08-07T16:32:55.436Z,2.95
2022-08-07T16:35:51.972Z,2.22
2022-08-07T16:38:19.755Z,1.60
2022-08-07T16:41:25.118Z,2.95
2022-08-07T16:44:46.405Z,2.85
2022-08-07T16:47:50.882Z,1.95
2022-08-07T16:50:26.560Z,4.45
2022-08-07T16:53:09.735Z,3.63
2022-08-07T16:55:53.238Z,4.25
2022-08-07T16:58:33.677Z,5.53
2022-08-07T17:01:34.535Z,2.97
2022-08-07T17:04:29.530Z,5.00
2022-08-07T17:07:07.710Z,5.63
2022-08-07T17:10:07.474Z,3.92
2022-08-07T17:12:33.766Z,2.85
2022-08-07T17:15:06.538Z,3.75
2022-08-07T17:17:46.129Z,2.28
2022-08-07T17:20:21.430Z,3.70
2022-08-07T17:23:08.752Z,3.40
2022-08-07T17:25:57.974Z,3.83
2022-08-07T17:28:31.437Z,5.93
2022-08-07T17:31:15.952Z,3.55
2022-08-07T17:34:32.894Z,3.38
2022-08-07T17:36:57.448Z,2.92
2022-08-07T17:39:58.922Z,4.78
2022-08-07T17:42:36.176Z,3.83
2022-08-07T17:45:27.487Z,5.97
2022-08-07T17:48:06.693Z,3.30
2022-08-07T17:50:54.465Z,6.65
2022-08-07T17:53:59.601Z,3.72
2022-08-07T17:56:15.227Z,4.68
2022-08-07T17:58:46.316Z,4.05
2022-08-07T18:01:22.090Z,4.20
2022-08-07T18:04:08.082Z,19.88
2022-08-07T18:06:47.644Z,10.95
2022-08-07T18:10:04.483Z,7.07
2022-08-07T18:12:41.772Z,5.65
2022-08-07T18:15:11.277Z,7.68
2022-08-07T18:18:46.422Z,5.78
2022-08-07T18:21:05.947Z,6.45
2022-08-07T18:23:56.173Z,6.75
2022-08-07T18:26:32.200Z,5.97
2022-08-07T18:30:07.864Z,8.90
2022-08-07T18:32:07.856Z,10.25
2022-08-07T18:34:53.331Z,7.70
2022-08-07T18:38:59.265Z,7.22
2022-08-07T18:40:50.081Z,6.95
2022-08-07T18:43:42.694Z,11.50
2022-08-07T18:46:24.373Z,6.43
2022-08-07T18:50:32.022Z,6.43
2022-08-07T18:52:34.747Z,4.40
2022-08-07T18:54:50.983Z,5.47
2022-08-07T18:57:30.771Z,4.40
2022-08-07T19:00:04.123Z,5.28
2022-08-07T19:02:52.436Z,5.70
2022-08-07T19:06:02.749Z,7.63
2022-08-07T19:08:46.243Z,8.95
2022-08-07T19:11:35.779Z,6.30
2022-08-07T19:14:39.113Z,7.50
2022-08-07T19:17:16.137Z,7.13
2022-08-07T19:20:00.020Z,7.60
2022-08-07T19:22:40.178Z,8.13
2022-08-07T19:26:23.038Z,10.57
2022-08-07T19:28:57.947Z,8.00
2022-08-07T19:31:41.455Z,7.35
2022-08-07T19:33:44.193Z,8.73
2022-08-07T19:36:28.105Z,8.45
2022-08-07T19:38:58.383Z,11.15
2022-08-07T19:41:44.268Z,8.30
2022-08-07T19:44:21.898Z,8.55
2022-08-07T19:46:55.650Z,8.65
2022-08-07T19:49:56.502Z,10.55
2022-08-07T19:52:18.125Z,7.50
2022-08-07T19:54:58.289Z,10.23
2022-08-07T19:58:01.571Z,8.23
2022-08-07T20:00:31.024Z,8.43
2022-08-07T20:03:03.460Z,10.80
2022-08-07T20:05:30.882Z,9.52
2022-08-07T20:08:20.870Z,10.57
2022-08-07T20:10:54.978Z,9.38
2022-08-07T20:13:26.970Z,7.60
2022-08-07T20:16:00.602Z,9.35
2022-08-07T20:18:32.927Z,9.30
2022-08-07T20:21:02.443Z,9.48
2022-08-07T20:23:40.691Z,7.50
2022-08-07T20:26:10.573Z,11.20
2022-08-07T20:28:39.102Z,8.10
2022-08-07T20:31:21.625Z,7.53
2022-08-07T20:33:51.499Z,8.07
2022-08-07T20:36:25.246Z,7.30
2022-08-07T20:39:00.497Z,9.57
2022-08-07T20:41:38.051Z,9.38
2022-08-07T20:44:10.306Z,12.45
2022-08-07T20:46:43.714Z,10.73
2022-08-07T20:49:57.939Z,8.85
2022-08-07T20:51:59.088Z,9.55
2022-08-07T20:54:30.195Z,10.52
2022-08-07T20:56:59.621Z,12.15
2022-08-07T21:00:06.866Z,12.65
2022-08-07T21:02:35.433Z,12.13
2022-08-07T21:05:10.344Z,14.95
2022-08-07T21:07:43.549Z,16.35
2022-08-07T21:10:29.482Z,14.73
2022-08-07T21:12:58.974Z,12.70
2022-08-07T21:15:47.682Z,10.27
2022-08-07T21:18:25.493Z,14.57
2022-08-07T21:20:56.599Z,15.18
2022-08-07T21:23:50.689Z,10.82
2022-08-07T21:26:21.931Z,11.85
2022-08-07T21:28:58.770Z,11.05
2022-08-07T21:31:49.351Z,12.68
2022-08-07T21:34:26.702Z,10.93
2022-08-07T21:37:21.323Z,13.48
2022-08-07T21:39:59.466Z,13.70
2022-08-07T21:42:46.440Z,15.77
2022-08-07T21:46:09.456Z,11.75
2022-08-07T21:48:29.110Z,13.25
2022-08-07T21:51:19.738Z,12.73
2022-08-07T21:53:52.635Z,13.95
2022-08-07T21:56:37.647Z,17.70
2022-08-07T21:59:16.179Z,14.70
2022-08-07T22:02:11.074Z,13.85
2022-08-07T22:04:53.950Z,15.60
2022-08-07T22:07:31.789Z,15.00
2022-08-07T22:10:17.565Z,17.00
2022-08-07T22:13:03.764Z,14.68
2022-08-07T22:16:39.548Z,16.80
2022-08-07T22:18:35.450Z,17.00
2022-08-07T22:21:14.448Z,19.10
2022-08-07T22:23:47.418Z,19.95
2022-08-07T22:26:22.826Z,18.65
2022-08-07T22:29:03.763Z,18.77
2022-08-07T22:31:56.016Z,19.35
2022-08-07T22:34:33.233Z,18.25
2022-08-07T22:37:14.626Z,17.83
2022-08-07T22:40:04.955Z,18.80
2022-08-07T22:42:32.762Z,17.35
2022-08-07T22:45:03.742Z,20.00
2022-08-07T22:47:33.513Z,17.95
2022-08-07T22:50:20.861Z,21.08
2022-08-07T22:53:15.154Z,17.75
2022-08-07T22:56:01.100Z,17.42
2022-08-07T22:58:33.926Z,18.35
2022-08-07T23:01:19.202Z,18.50
2022-08-07T23:03:58.361Z,16.27
2022-08-07T23:06:51.699Z,16.35
2022-08-07T23:10:00.732Z,16.90
2022-08-07T23:12:34.315Z,16.08
2022-08-07T23:15:01.462Z,15.98
2022-08-07T23:17:37.398Z,14.52
2022-08-07T23:20:40.772Z,16.17
2022-08-07T23:23:10.592Z,14.57
2022-08-07T23:25:57.881Z,15.43
2022-08-07T23:28:33.190Z,15.35
2022-08-07T23:31:42.633Z,14.05
2022-08-07T23:34:22.909Z,14.95
2022-08-07T23:37:17.732Z,16.25
2022-08-07T23:39:55.977Z,15.40
2022-08-07T23:42:30.644Z,14.32
2022-08-07T23:45:33.345Z,13.90
2022-08-07T23:48:05.652Z,13.70
2022-08-07T23:50:35.328Z,13.52
2022-08-07T23:53:21.122Z,14.02
2022-08-07T23:55:55.811Z,13.52
2022-08-07T23:58:29.761Z,12.00
